Time;durP1;ratioP1;P1;durP2;ratioP2;P2;SDS_P1;SDS_P2;PMS_P1;PMS_P2;Temp;Humidity;BMP_temperature;BMP_pressure;BME280_temperature;BME280_humidity;BME280_pressure;Samples;Min_cycle;Max_cycle;Signal;HPM_P1;HPM_P2
2022/09/15 00:00:07;;;;;;;;;;;18.40;99.90;;;;;;5006076;28;19909;-76
2022/09/15 00:02:33;;;;;;;;;;;18.40;99.90;;;;;;5010337;28;19916;-76
2022/09/15 00:04:59;;;;;;;;;;;18.40;99.90;;;;;;5012205;28;19914;-76
2022/09/15 00:07:25;;;;;;;;;;;18.40;99.90;;;;;;5006535;28;20263;-76
2022/09/15 00:09:50;;;;;;;;;;;18.40;99.90;;;;;;5009674;28;20056;-76
2022/09/15 00:12:16;;;;;;;;;;;18.40;99.90;;;;;;5011040;28;19913;-76
2022/09/15 00:14:42;;;;;;;;;;;18.40;99.90;;;;;;5012037;28;20287;-76
2022/09/15 00:17:07;;;;;;;;;;;18.40;99.90;;;;;;5011546;28;19909;-75
2022/09/15 00:19:33;;;;;;;;;;;18.40;99.90;;;;;;5032170;23;20354;-81
2022/09/15 00:21:58;;;;;;;;;;;18.40;99.90;;;;;;5004628;28;20262;-81
2022/09/15 00:24:24;;;;;;;;;;;18.40;99.90;;;;;;5005096;28;19918;-81
2022/09/15 00:26:49;;;;;;;;;;;18.40;99.90;;;;;;5006347;28;19918;-81
2022/09/15 00:29:15;;;;;;;;;;;18.40;99.90;;;;;;5003382;28;19917;-81
2022/09/15 00:31:40;;;;;;;;;;;18.40;99.90;;;;;;5003709;28;20005;-82
2022/09/15 00:34:06;;;;;;;;;;;18.40;99.90;;;;;;5005366;28;20436;-81
2022/09/15 00:36:32;;;;;;;;;;;18.40;99.90;;;;;;5010313;28;19909;-81
2022/09/15 00:38:57;;;;;;;;;;;18.40;99.90;;;;;;5006925;28;19940;-81
2022/09/15 00:41:23;;;;;;;;;;;18.40;99.90;;;;;;5008476;28;20395;-81
2022/09/15 00:43:58;;;;;;;;;;;18.50;99.90;;;;;;5010533;28;19924;-80
2022/09/15 00:46:30;;;;;;;;;;;18.50;99.90;;;;;;5012219;28;19913;-80
2022/09/15 00:49:14;;;;;;;;;;;18.50;99.90;;;;;;5003848;28;19916;-80
2022/09/15 00:52:11;;;;;;;;;;;18.50;99.90;;;;;;5000586;28;19925;-80
2022/09/15 00:54:40;;;;;;;;;;;18.50;99.90;;;;;;4984174;28;19910;-80
2022/09/15 00:57:25;;;;;;;;;;;18.50;99.90;;;;;;5004335;28;19914;-80
2022/09/15 00:59:52;;;;;;;;;;;18.60;99.90;;;;;;5007232;28;19910;-80
2022/09/15 01:02:22;;;;;;;;;;;18.60;99.90;;;;;;5005847;28;19909;-80
2022/09/15 01:04:49;;;;;;;;;;;18.60;99.90;;;;;;5001812;28;19921;-80
2022/09/15 01:07:17;;;;;;;;;;;18.60;99.90;;;;;;5018343;28;19909;-80
2022/09/15 01:09:46;;;;;;;;;;;18.60;99.90;;;;;;5004276;28;19909;-81
2022/09/15 01:12:12;;;;;;;;;;;18.60;99.90;;;;;;5015613;28;19916;-80
2022/09/15 01:14:38;;;;;;;;;;;18.60;99.90;;;;;;5005111;28;19917;-80
2022/09/15 01:17:09;;;;;;;;;;;18.60;99.90;;;;;;5001390;28;20254;-80
2022/09/15 01:19:43;;;;;;;;;;;18.60;99.90;;;;;;5001902;28;19913;-81
2022/09/15 01:22:27;;;;;;;;;;;18.60;99.90;;;;;;5005764;28;20385;-81
2022/09/15 01:25:06;;;;;;;;;;;18.60;99.90;;;;;;4999884;28;19913;-80
2022/09/15 01:27:50;;;;;;;;;;;18.60;99.90;;;;;;5023085;28;19913;-80
2022/09/15 01:30:18;;;;;;;;;;;18.60;99.90;;;;;;5003557;28;20424;-80
2022/09/15 01:33:05;;;;;;;;;;;18.60;99.90;;;;;;5006741;28;19913;-80
2022/09/15 01:35:34;;;;;;;;;;;18.60;99.90;;;;;;5011153;28;19956;-80
2022/09/15 01:38:16;;;;;;;;;;;18.60;99.90;;;;;;5002357;28;20321;-80
2022/09/15 01:41:02;;;;;;;;;;;18.60;99.90;;;;;;5011995;28;20018;-79
2022/09/15 01:43:28;;;;;;;;;;;18.60;99.90;;;;;;4990604;28;20397;-80
2022/09/15 01:45:54;;;;;;;;;;;18.60;99.90;;;;;;5021577;28;20495;-80
2022/09/15 01:48:22;;;;;;;;;;;18.60;99.90;;;;;;5005659;28;19996;-80
2022/09/15 01:50:51;;;;;;;;;;;18.70;99.90;;;;;;5008538;28;19916;-80
2022/09/15 01:53:18;;;;;;;;;;;18.70;99.90;;;;;;5009469;28;20008;-80
2022/09/15 01:55:53;;;;;;;;;;;18.70;99.90;;;;;;5012453;28;20015;-80
2022/09/15 01:58:19;;;;;;;;;;;18.70;99.90;;;;;;5007829;28;20281;-80
2022/09/15 02:00:48;;;;;;;;;;;18.70;99.90;;;;;;5007740;28;19920;-80
2022/09/15 02:03:22;;;;;;;;;;;18.70;99.90;;;;;;5010087;28;20008;-80
2022/09/15 02:05:51;;;;;;;;;;;18.70;99.90;;;;;;5023426;28;20009;-80
2022/09/15 02:08:32;;;;;;;;;;;18.70;99.90;;;;;;5012648;28;19983;-80
2022/09/15 02:11:12;;;;;;;;;;;18.70;99.90;;;;;;5007593;28;19910;-80
2022/09/15 02:13:54;;;;;;;;;;;18.70;99.90;;;;;;5009229;28;19928;-80
2022/09/15 02:16:20;;;;;;;;;;;18.70;99.90;;;;;;5002481;28;19913;-81
2022/09/15 02:18:55;;;;;;;;;;;18.60;99.90;;;;;;5010806;28;19948;-80
2022/09/15 02:21:28;;;;;;;;;;;18.60;99.90;;;;;;5005479;28;19917;-80
2022/09/15 02:23:57;;;;;;;;;;;18.60;99.90;;;;;;5003382;28;20288;-80
2022/09/15 02:26:25;;;;;;;;;;;18.60;99.90;;;;;;5005867;28;19917;-80
2022/09/15 02:28:53;;;;;;;;;;;18.60;99.90;;;;;;5004478;28;20398;-80
2022/09/15 02:31:20;;;;;;;;;;;18.60;99.90;;;;;;5004612;28;19913;-80
2022/09/15 02:33:48;;;;;;;;;;;18.60;99.90;;;;;;5021003;28;19944;-80
2022/09/15 02:36:16;;;;;;;;;;;18.60;99.90;;;;;;5006575;28;19910;-80
2022/09/15 02:38:45;;;;;;;;;;;18.60;99.90;;;;;;5008996;28;19936;-80
2022/09/15 02:41:12;;;;;;;;;;;18.60;99.90;;;;;;5007990;28;19949;-80
2022/09/15 02:43:43;;;;;;;;;;;18.50;99.90;;;;;;5005536;28;19964;-80
2022/09/15 02:46:09;;;;;;;;;;;18.60;99.90;;;;;;5008254;28;20032;-80
2022/09/15 02:48:34;;;;;;;;;;;18.60;99.90;;;;;;5001478;28;19975;-80
2022/09/15 02:51:00;;;;;;;;;;;18.60;99.90;;;;;;5005348;28;19913;-80
2022/09/15 02:53:26;;;;;;;;;;;18.60;99.90;;;;;;5012036;28;20377;-80
2022/09/15 02:55:51;;;;;;;;;;;18.60;99.90;;;;;;5013328;28;19917;-80
2022/09/15 02:58:17;;;;;;;;;;;18.60;99.90;;;;;;5012741;28;20258;-80
2022/09/15 03:00:43;;;;;;;;;;;18.60;99.90;;;;;;5001342;28;19917;-80
2022/09/15 03:03:09;;;;;;;;;;;18.60;99.90;;;;;;5020806;28;20004;-80
2022/09/15 03:05:34;;;;;;;;;;;18.60;99.90;;;;;;5017406;28;20334;-80
2022/09/15 03:08:01;;;;;;;;;;;18.60;99.90;;;;;;5005267;28;19956;-80
2022/09/15 03:10:26;;;;;;;;;;;18.60;99.90;;;;;;5010456;28;19909;-80
2022/09/15 03:12:53;;;;;;;;;;;18.60;99.90;;;;;;5007531;28;20336;-80
2022/09/15 03:15:21;;;;;;;;;;;18.50;99.90;;;;;;5006935;28;20020;-80
2022/09/15 03:17:46;;;;;;;;;;;18.60;99.90;;;;;;5007489;28;19917;-80
2022/09/15 03:20:16;;;;;;;;;;;18.50;99.90;;;;;;5006710;28;20263;-80
2022/09/15 03:22:41;;;;;;;;;;;18.50;99.90;;;;;;5006102;28;19953;-80
2022/09/15 03:25:08;;;;;;;;;;;18.50;99.90;;;;;;5002767;28;19953;-80
2022/09/15 03:27:34;;;;;;;;;;;18.50;99.90;;;;;;5007830;28;19963;-80
2022/09/15 03:30:00;;;;;;;;;;;18.50;99.90;;;;;;5009133;28;19913;-80
2022/09/15 03:32:26;;;;;;;;;;;18.50;99.90;;;;;;5013519;28;20377;-80
2022/09/15 03:34:51;;;;;;;;;;;18.50;99.90;;;;;;5006748;28;19910;-80
2022/09/15 03:37:17;;;;;;;;;;;18.50;99.90;;;;;;5010952;28;20334;-80
2022/09/15 03:39:42;;;;;;;;;;;18.50;99.90;;;;;;5007979;28;19909;-80
2022/09/15 03:42:08;;;;;;;;;;;18.50;99.90;;;;;;5007235;28;20278;-81
2022/09/15 03:44:34;;;;;;;;;;;18.40;99.90;;;;;;5007134;28;19953;-81
2022/09/15 03:47:00;;;;;;;;;;;18.40;99.90;;;;;;5006758;28;19944;-81
2022/09/15 03:49:26;;;;;;;;;;;18.40;99.90;;;;;;5007991;28;19947;-81
2022/09/15 03:51:51;;;;;;;;;;;18.40;99.90;;;;;;5010179;28;19932;-80
2022/09/15 03:54:17;;;;;;;;;;;18.40;99.90;;;;;;5008276;28;19910;-81
2022/09/15 03:56:42;;;;;;;;;;;18.40;99.90;;;;;;5004178;28;19913;-81
2022/09/15 03:59:08;;;;;;;;;;;18.50;99.90;;;;;;5008940;28;19917;-80
2022/09/15 04:01:33;;;;;;;;;;;18.40;99.90;;;;;;5023839;28;19909;-81
2022/09/15 04:03:59;;;;;;;;;;;18.40;99.90;;;;;;5003187;28;19910;-80
2022/09/15 04:06:25;;;;;;;;;;;18.40;99.90;;;;;;5005704;28;19917;-80
2022/09/15 04:08:51;;;;;;;;;;;18.40;99.90;;;;;;5005600;28;19924;-80
2022/09/15 04:11:18;;;;;;;;;;;18.40;99.90;;;;;;5005202;28;19909;-80
2022/09/15 04:13:44;;;;;;;;;;;18.40;99.90;;;;;;5006935;28;19924;-80
2022/09/15 04:16:10;;;;;;;;;;;18.40;99.90;;;;;;5003689;28;19913;-80
2022/09/15 04:18:36;;;;;;;;;;;18.40;99.90;;;;;;5004959;28;19909;-81
2022/09/15 04:21:04;;;;;;;;;;;18.40;99.90;;;;;;5003396;28;19909;-80
2022/09/15 04:23:30;;;;;;;;;;;18.40;99.90;;;;;;5004588;28;20393;-80
2022/09/15 04:25:55;;;;;;;;;;;18.40;99.90;;;;;;5004381;28;19968;-80
2022/09/15 04:28:21;;;;;;;;;;;18.40;99.90;;;;;;5004902;28;19909;-80
2022/09/15 04:30:47;;;;;;;;;;;18.40;99.90;;;;;;5001010;28;19917;-80
2022/09/15 04:33:12;;;;;;;;;;;18.40;99.90;;;;;;5002684;28;20362;-79
2022/09/15 04:35:38;;;;;;;;;;;18.40;99.90;;;;;;5003995;28;19913;-79
2022/09/15 04:38:03;;;;;;;;;;;18.40;99.90;;;;;;5006749;28;19952;-79
2022/09/15 04:40:29;;;;;;;;;;;18.40;99.90;;;;;;5005160;28;19995;-80
2022/09/15 04:42:54;;;;;;;;;;;18.40;99.90;;;;;;5003010;28;20325;-80
2022/09/15 04:45:20;;;;;;;;;;;18.40;99.90;;;;;;5001894;28;20353;-80
2022/09/15 04:47:47;;;;;;;;;;;18.40;99.90;;;;;;5002436;28;20357;-80
2022/09/15 04:50:12;;;;;;;;;;;18.30;99.90;;;;;;5002638;28;19917;-81
2022/09/15 04:52:39;;;;;;;;;;;18.40;99.90;;;;;;5003973;28;19956;-80
2022/09/15 04:55:05;;;;;;;;;;;18.30;99.90;;;;;;5004055;28;19910;-81
2022/09/15 04:57:31;;;;;;;;;;;18.30;99.90;;;;;;5003407;28;19917;-81
2022/09/15 04:59:57;;;;;;;;;;;18.20;99.90;;;;;;5001971;28;20340;-81
2022/09/15 05:02:22;;;;;;;;;;;18.20;99.90;;;;;;5009972;28;19914;-81
2022/09/15 05:04:50;;;;;;;;;;;18.20;99.90;;;;;;5004478;28;19921;-80
2022/09/15 05:07:16;;;;;;;;;;;18.10;99.90;;;;;;5008803;28;19909;-80
2022/09/15 05:09:41;;;;;;;;;;;18.10;99.90;;;;;;5007549;28;19933;-80
2022/09/15 05:12:07;;;;;;;;;;;18.10;99.90;;;;;;5005938;28;20329;-85
2022/09/15 05:14:33;;;;;;;;;;;18.10;99.90;;;;;;5015709;28;20273;-78
2022/09/15 05:16:58;;;;;;;;;;;18.10;99.90;;;;;;5007754;28;19913;-81
2022/09/15 05:19:24;;;;;;;;;;;18.10;99.90;;;;;;5003077;28;19968;-81
2022/09/15 05:21:49;;;;;;;;;;;18.20;99.90;;;;;;5008345;28;19913;-82
2022/09/15 05:24:15;;;;;;;;;;;18.20;99.90;;;;;;5010498;28;19920;-81
2022/09/15 05:26:40;;;;;;;;;;;18.20;99.90;;;;;;5000224;28;20281;-81
2022/09/15 05:29:06;;;;;;;;;;;18.20;99.90;;;;;;5008256;28;19956;-82
2022/09/15 05:31:35;;;;;;;;;;;18.30;99.90;;;;;;5005715;28;20366;-83
2022/09/15 05:34:02;;;;;;;;;;;18.30;99.90;;;;;;5011425;28;19936;-81
2022/09/15 05:36:28;;;;;;;;;;;18.30;99.90;;;;;;5004359;28;19913;-81
2022/09/15 05:38:55;;;;;;;;;;;18.20;99.90;;;;;;5012650;28;19967;-80
2022/09/15 05:41:20;;;;;;;;;;;18.30;99.90;;;;;;5009479;28;19909;-79
2022/09/15 05:43:47;;;;;;;;;;;18.20;99.90;;;;;;5009865;28;19937;-80
2022/09/15 05:46:13;;;;;;;;;;;18.20;99.90;;;;;;5007345;28;19928;-81
2022/09/15 05:48:38;;;;;;;;;;;18.20;99.90;;;;;;5007042;28;20024;-91
2022/09/15 05:51:04;;;;;;;;;;;18.20;99.90;;;;;;5025067;28;20015;-80
2022/09/15 05:53:31;;;;;;;;;;;18.20;99.90;;;;;;5024524;28;19914;-79
2022/09/15 05:55:58;;;;;;;;;;;18.10;99.90;;;;;;5006640;28;20408;-79
2022/09/15 05:58:23;;;;;;;;;;;18.10;99.90;;;;;;5005062;28;19913;-79
2022/09/15 06:00:49;;;;;;;;;;;18.00;99.90;;;;;;5004010;28;20012;-80
2022/09/15 06:03:15;;;;;;;;;;;18.00;99.90;;;;;;5006984;28;20008;-80
2022/09/15 06:05:41;;;;;;;;;;;18.00;99.90;;;;;;5009154;28;19917;-80
2022/09/15 06:08:06;;;;;;;;;;;18.00;99.90;;;;;;5002599;28;19917;-78
2022/09/15 06:10:32;;;;;;;;;;;18.00;99.90;;;;;;5003766;28;20844;-79
2022/09/15 06:12:58;;;;;;;;;;;18.00;99.90;;;;;;5006518;28;20599;-79
2022/09/15 06:15:23;;;;;;;;;;;17.90;99.90;;;;;;5002952;28;19916;-78
2022/09/15 06:17:49;;;;;;;;;;;18.00;99.90;;;;;;4999824;28;19975;-79
2022/09/15 06:20:15;;;;;;;;;;;18.00;99.90;;;;;;5041676;22;20374;-79
2022/09/15 06:22:40;;;;;;;;;;;18.00;99.90;;;;;;5014795;28;19918;-79
2022/09/15 06:25:06;;;;;;;;;;;18.00;99.90;;;;;;5018414;28;19924;-79
2022/09/15 06:27:32;;;;;;;;;;;18.00;99.90;;;;;;5018379;28;19913;-79
2022/09/15 06:29:57;;;;;;;;;;;18.00;99.90;;;;;;5017716;28;19917;-79
2022/09/15 06:32:23;;;;;;;;;;;18.00;99.90;;;;;;5028704;28;19933;-79
2022/09/15 06:34:48;;;;;;;;;;;18.00;99.90;;;;;;5016897;28;19916;-79
2022/09/15 06:37:14;;;;;;;;;;;18.00;99.90;;;;;;5022687;28;19909;-79
2022/09/15 06:39:42;;;;;;;;;;;18.00;99.90;;;;;;5015558;28;19918;-78
2022/09/15 06:42:08;;;;;;;;;;;18.00;99.90;;;;;;5011448;28;19917;-78
2022/09/15 06:44:33;;;;;;;;;;;18.00;99.90;;;;;;5014373;28;20036;-78
2022/09/15 06:46:59;;;;;;;;;;;18.00;99.90;;;;;;5035302;28;19913;-78
2022/09/15 06:49:24;;;;;;;;;;;18.10;99.90;;;;;;5010911;28;19909;-78
2022/09/15 06:51:50;;;;;;;;;;;18.10;99.90;;;;;;5016214;28;20361;-78
2022/09/15 06:54:15;;;;;;;;;;;18.10;99.90;;;;;;5019123;28;19918;-80
2022/09/15 06:56:41;;;;;;;;;;;18.10;99.90;;;;;;5034758;28;19918;-79
2022/09/15 06:59:10;;;;;;;;;;;18.10;99.90;;;;;;5029011;28;19913;-80
2022/09/15 07:01:36;;;;;;;;;;;18.10;99.90;;;;;;5011747;28;19996;-79
2022/09/15 07:04:03;;;;;;;;;;;18.20;99.90;;;;;;5015134;28;19953;-79
2022/09/15 07:06:29;;;;;;;;;;;18.20;99.90;;;;;;5012096;28;20400;-79
2022/09/15 07:08:55;;;;;;;;;;;18.30;99.90;;;;;;5026797;28;19945;-78
2022/09/15 07:11:21;;;;;;;;;;;18.40;99.90;;;;;;5011750;28;19932;-78
2022/09/15 07:13:47;;;;;;;;;;;18.40;99.90;;;;;;5013906;28;19909;-79
2022/09/15 07:16:13;;;;;;;;;;;18.40;99.90;;;;;;5020244;28;19929;-78
2022/09/15 07:18:39;;;;;;;;;;;18.40;99.90;;;;;;5020998;28;19918;-78
2022/09/15 07:21:06;;;;;;;;;;;18.50;99.90;;;;;;5029112;28;19973;-78
2022/09/15 07:23:32;;;;;;;;;;;18.50;99.90;;;;;;5019101;28;19940;-79
2022/09/15 07:26:11;;;;;;;;;;;18.50;99.90;;;;;;5022922;28;19940;-78
2022/09/15 07:28:37;;;;;;;;;;;18.60;99.90;;;;;;5031373;28;19917;-79
2022/09/15 07:31:04;;;;;;;;;;;18.60;99.90;;;;;;5032367;28;19996;-79
2022/09/15 07:33:29;;;;;;;;;;;18.60;99.90;;;;;;5015309;28;19913;-80
2022/09/15 07:35:55;;;;;;;;;;;18.70;99.90;;;;;;5019448;28;20285;-79
2022/09/15 07:38:20;;;;;;;;;;;18.70;99.90;;;;;;5017701;28;19920;-79
2022/09/15 07:40:47;;;;;;;;;;;18.70;99.90;;;;;;5007399;28;19917;-79
2022/09/15 07:43:14;;;;;;;;;;;18.80;99.90;;;;;;5014144;28;19917;-78
2022/09/15 07:45:39;;;;;;;;;;;18.80;99.90;;;;;;5015911;28;19921;-79
2022/09/15 07:48:05;;;;;;;;;;;18.80;99.90;;;;;;5017693;28;19897;-79
2022/09/15 07:50:30;;;;;;;;;;;18.90;99.90;;;;;;5015437;28;19909;-79
2022/09/15 07:52:56;;;;;;;;;;;18.90;99.90;;;;;;5016011;28;20367;-79
2022/09/15 07:55:22;;;;;;;;;;;19.00;99.90;;;;;;5013102;28;19940;-79
2022/09/15 07:57:55;;;;;;;;;;;19.10;99.90;;;;;;5028320;28;19937;-79
2022/09/15 08:00:20;;;;;;;;;;;19.20;99.90;;;;;;5014233;28;19917;-79
2022/09/15 08:02:46;;;;;;;;;;;19.20;99.90;;;;;;5010266;28;19914;-79
2022/09/15 08:05:11;;;;;;;;;;;19.30;99.90;;;;;;5018253;28;19944;-80
2022/09/15 08:07:38;;;;;;;;;;;19.30;99.90;;;;;;5013061;28;19920;-79
2022/09/15 08:10:04;;;;;;;;;;;19.40;99.90;;;;;;5022976;28;19945;-79
2022/09/15 08:12:30;;;;;;;;;;;19.40;99.90;;;;;;5016080;28;19917;-80
2022/09/15 08:14:55;;;;;;;;;;;19.40;99.90;;;;;;5008761;28;19909;-71
2022/09/15 08:17:21;;;;;;;;;;;19.40;99.90;;;;;;5028006;28;19913;-78
2022/09/15 08:19:46;;;;;;;;;;;19.50;99.90;;;;;;5007676;28;19905;-80
2022/09/15 08:22:12;;;;;;;;;;;19.50;99.90;;;;;;5012024;28;19913;-78
2022/09/15 08:24:38;;;;;;;;;;;19.40;99.90;;;;;;5007926;28;19975;-79
2022/09/15 08:27:04;;;;;;;;;;;19.40;99.90;;;;;;5015079;28;19910;-81
2022/09/15 08:29:30;;;;;;;;;;;19.40;99.90;;;;;;5011465;28;19915;-80
2022/09/15 08:31:55;;;;;;;;;;;19.40;99.90;;;;;;5016737;28;19984;-81
2022/09/15 08:34:21;;;;;;;;;;;19.40;99.90;;;;;;5032106;28;19918;-80
2022/09/15 08:36:46;;;;;;;;;;;19.30;99.90;;;;;;5014271;28;19913;-81
2022/09/15 08:39:12;;;;;;;;;;;19.30;99.90;;;;;;5007978;28;19921;-80
2022/09/15 08:41:37;;;;;;;;;;;19.30;99.90;;;;;;5012964;28;19917;-81
2022/09/15 08:44:09;;;;;;;;;;;19.30;99.90;;;;;;5015250;28;19933;-80
2022/09/15 08:46:46;;;;;;;;;;;19.30;99.90;;;;;;5011700;28;19923;-79
2022/09/15 08:49:14;;;;;;;;;;;19.30;99.90;;;;;;5011930;28;20027;-79
2022/09/15 08:51:47;;;;;;;;;;;19.30;99.90;;;;;;5014915;28;19909;-80
2022/09/15 08:54:20;;;;;;;;;;;19.30;99.90;;;;;;5006120;28;19913;-80
2022/09/15 08:56:46;;;;;;;;;;;19.30;99.90;;;;;;5022906;28;20024;-80
2022/09/15 08:59:13;;;;;;;;;;;19.40;99.90;;;;;;5011068;28;20382;-79
2022/09/15 09:01:39;;;;;;;;;;;19.40;99.90;;;;;;5011857;28;19936;-80
2022/09/15 09:04:46;;;;;;;;;;;19.40;99.90;;;;;;5012464;28;19913;-79
2022/09/15 09:07:23;;;;;;;;;;;19.60;99.90;;;;;;4996156;28;20587;-79
2022/09/15 09:09:49;;;;;;;;;;;19.70;99.90;;;;;;4996495;28;19914;-79
2022/09/15 09:12:14;;;;;;;;;;;19.80;99.90;;;;;;5005196;28;19920;-78
2022/09/15 09:14:43;;;;;;;;;;;19.90;99.90;;;;;;5017569;28;19944;-78
2022/09/15 09:17:25;;;;;;;;;;;20.00;99.90;;;;;;5013290;28;19921;-78
2022/09/15 09:19:56;;;;;;;;;;;20.00;99.90;;;;;;5016229;28;19917;-80
2022/09/15 09:22:23;;;;;;;;;;;20.00;99.90;;;;;;5009582;28;19928;-80
2022/09/15 09:24:51;;;;;;;;;;;20.00;99.90;;;;;;5006858;28;19947;-80
2022/09/15 09:27:20;;;;;;;;;;;20.10;99.90;;;;;;5028283;28;19913;-81
2022/09/15 09:29:48;;;;;;;;;;;20.10;99.90;;;;;;5028740;28;19932;-80
2022/09/15 09:32:24;;;;;;;;;;;20.10;99.90;;;;;;5026396;28;19917;-79
2022/09/15 09:35:01;;;;;;;;;;;20.20;99.90;;;;;;5012166;28;20876;-79
2022/09/15 09:37:27;;;;;;;;;;;20.20;99.90;;;;;;5024865;28;19909;-79
2022/09/15 09:39:53;;;;;;;;;;;20.30;99.90;;;;;;5009373;28;19913;-81
2022/09/15 09:42:19;;;;;;;;;;;20.30;99.90;;;;;;5014507;28;19949;-79
2022/09/15 09:44:45;;;;;;;;;;;20.40;99.90;;;;;;5009785;28;19980;-80
2022/09/15 09:47:12;;;;;;;;;;;20.40;99.90;;;;;;5028149;28;20345;-79
2022/09/15 09:49:39;;;;;;;;;;;20.50;99.90;;;;;;5012660;28;20378;-80
2022/09/15 09:52:04;;;;;;;;;;;20.50;99.90;;;;;;5009181;28;19983;-79
2022/09/15 09:54:31;;;;;;;;;;;20.50;99.90;;;;;;5011998;28;19917;-79
2022/09/15 09:57:12;;;;;;;;;;;20.60;99.90;;;;;;5009374;28;20920;-77
2022/09/15 09:59:42;;;;;;;;;;;20.60;99.90;;;;;;5010985;28;19924;-79
2022/09/15 10:02:10;;;;;;;;;;;20.70;99.90;;;;;;5015353;28;19985;-77
2022/09/15 10:04:45;;;;;;;;;;;20.80;99.90;;;;;;5013281;28;20460;-78
2022/09/15 10:07:11;;;;;;;;;;;20.80;99.90;;;;;;5012741;28;19910;-79
2022/09/15 10:09:37;;;;;;;;;;;20.90;99.90;;;;;;5014477;28;20281;-80
2022/09/15 10:12:04;;;;;;;;;;;21.00;99.90;;;;;;5027998;28;20297;-80
2022/09/15 10:14:39;;;;;;;;;;;21.00;99.90;;;;;;5032624;28;19916;-81
2022/09/15 10:17:12;;;;;;;;;;;21.10;99.90;;;;;;5014829;28;20385;-82
2022/09/15 10:19:44;;;;;;;;;;;21.10;99.90;;;;;;5015336;28;20484;-79
2022/09/15 10:22:19;;;;;;;;;;;21.20;99.90;;;;;;5008687;28;19916;-79
2022/09/15 10:24:45;;;;;;;;;;;21.20;99.90;;;;;;5026797;28;20398;-80
2022/09/15 10:27:25;;;;;;;;;;;21.20;99.90;;;;;;5023521;28;20315;-79
2022/09/15 10:29:51;;;;;;;;;;;21.30;99.90;;;;;;5024970;28;19916;-80
2022/09/15 10:32:26;;;;;;;;;;;21.40;99.90;;;;;;5008975;28;19917;-80
2022/09/15 10:35:03;;;;;;;;;;;21.40;99.90;;;;;;5022771;28;19987;-82
2022/09/15 10:37:28;;;;;;;;;;;21.40;99.90;;;;;;5018563;28;19910;-81
2022/09/15 10:40:02;;;;;;;;;;;21.30;99.90;;;;;;5012589;28;19916;-80
2022/09/15 10:42:35;;;;;;;;;;;21.30;99.90;;;;;;5014101;28;19909;-81
2022/09/15 10:45:07;;;;;;;;;;;21.20;99.90;;;;;;5010210;28;20404;-80
2022/09/15 10:47:40;;;;;;;;;;;21.20;99.90;;;;;;5018056;28;19914;-80
2022/09/15 10:50:06;;;;;;;;;;;21.10;99.90;;;;;;5015484;28;20474;-79
2022/09/15 10:52:50;;;;;;;;;;;21.10;99.90;;;;;;5014083;28;19916;-78
2022/09/15 10:55:28;;;;;;;;;;;21.10;99.90;;;;;;5009852;28;20387;-77
2022/09/15 10:57:59;;;;;;;;;;;21.10;99.90;;;;;;5014212;28;19972;-80
2022/09/15 11:00:28;;;;;;;;;;;21.20;99.90;;;;;;5013557;28;19988;-81
2022/09/15 11:03:13;;;;;;;;;;;21.30;99.90;;;;;;5013660;28;19913;-80
2022/09/15 11:05:54;;;;;;;;;;;21.40;99.90;;;;;;5013704;28;19925;-80
2022/09/15 11:08:23;;;;;;;;;;;21.40;99.90;;;;;;5010740;28;19972;-81
2022/09/15 11:10:54;;;;;;;;;;;21.30;99.90;;;;;;5014927;28;19924;-79
2022/09/15 11:13:36;;;;;;;;;;;21.30;99.90;;;;;;5013379;28;20358;-82
2022/09/15 11:16:10;;;;;;;;;;;21.20;99.90;;;;;;5028937;28;20396;-81
2022/09/15 11:18:51;;;;;;;;;;;21.20;99.90;;;;;;5014595;28;19909;-83
2022/09/15 11:21:22;;;;;;;;;;;21.20;99.90;;;;;;5012004;28;20350;-78
2022/09/15 11:24:10;;;;;;;;;;;21.20;99.90;;;;;;5014495;28;19963;-80
2022/09/15 11:26:42;;;;;;;;;;;21.20;99.90;;;;;;4989708;28;19913;-78
2022/09/15 11:29:21;;;;;;;;;;;21.30;99.90;;;;;;5013195;28;19909;-78
2022/09/15 11:31:50;;;;;;;;;;;21.20;99.90;;;;;;5013512;28;20290;-79
2022/09/15 11:34:21;;;;;;;;;;;21.20;99.90;;;;;;5019627;28;19936;-77
2022/09/15 11:36:52;;;;;;;;;;;21.20;99.90;;;;;;5017887;28;19909;-79
2022/09/15 11:39:18;;;;;;;;;;;21.10;99.90;;;;;;5033423;28;19968;-80
2022/09/15 11:41:55;;;;;;;;;;;21.10;99.90;;;;;;5016813;28;19924;-79
2022/09/15 11:44:23;;;;;;;;;;;21.00;99.90;;;;;;5035296;28;19917;-81
2022/09/15 11:47:12;;;;;;;;;;;21.00;99.90;;;;;;5024878;28;19956;-80
2022/09/15 11:49:58;;;;;;;;;;;20.90;99.90;;;;;;5010089;28;19917;-79
2022/09/15 11:52:23;;;;;;;;;;;20.80;99.90;;;;;;5014549;28;19910;-78
2022/09/15 11:54:57;;;;;;;;;;;20.80;99.90;;;;;;5018619;28;19910;-77
2022/09/15 11:57:29;;;;;;;;;;;20.60;99.90;;;;;;5023153;28;19956;-78
2022/09/15 12:00:02;;;;;;;;;;;20.30;99.90;;;;;;5016212;28;19917;-79
2022/09/15 12:02:30;;;;;;;;;;;20.10;99.90;;;;;;5039908;28;19924;-78
2022/09/15 12:05:05;;;;;;;;;;;19.80;99.90;;;;;;5018817;28;19909;-78
2022/09/15 12:07:34;;;;;;;;;;;19.70;99.90;;;;;;5020766;28;19971;-78
2022/09/15 12:10:04;;;;;;;;;;;19.50;99.90;;;;;;5030667;28;19916;-78
2022/09/15 12:12:31;;;;;;;;;;;19.30;99.90;;;;;;5012241;28;19917;-79
2022/09/15 12:14:57;;;;;;;;;;;19.20;99.90;;;;;;5024146;28;19909;-78
2022/09/15 12:17:25;;;;;;;;;;;19.00;99.90;;;;;;5011951;28;19913;-79
2022/09/15 12:19:51;;;;;;;;;;;18.90;99.90;;;;;;5012289;23;20321;-73
2022/09/15 12:22:19;;;;;;;;;;;18.70;99.90;;;;;;4991494;28;20012;-74
2022/09/15 12:24:57;;;;;;;;;;;18.50;99.90;;;;;;5010440;28;19920;-74
2022/09/15 12:27:23;;;;;;;;;;;18.40;99.90;;;;;;4986953;28;19907;-75
2022/09/15 12:29:49;;;;;;;;;;;18.30;99.90;;;;;;4987056;28;20016;-75
2022/09/15 12:32:20;;;;;;;;;;;18.30;99.90;;;;;;4974006;28;19941;-74
2022/09/15 12:35:09;;;;;;;;;;;18.10;99.90;;;;;;4982288;28;19945;-74
2022/09/15 12:37:36;;;;;;;;;;;18.00;99.90;;;;;;4972900;28;19940;-74
2022/09/15 12:40:04;;;;;;;;;;;17.90;99.90;;;;;;4971274;28;19941;-76
2022/09/15 12:42:30;;;;;;;;;;;17.60;99.90;;;;;;4969649;28;19956;-74
2022/09/15 12:44:58;;;;;;;;;;;17.50;99.90;;;;;;4966012;28;19953;-74
2022/09/15 12:47:27;;;;;;;;;;;17.30;99.90;;;;;;4963902;28;19910;-74
2022/09/15 12:49:54;;;;;;;;;;;17.20;99.90;;;;;;4965725;28;19906;-74
2022/09/15 12:52:21;;;;;;;;;;;17.00;99.90;;;;;;4983649;28;19918;-74
2022/09/15 12:54:52;;;;;;;;;;;16.80;99.90;;;;;;4964854;28;20291;-74
2022/09/15 12:57:27;;;;;;;;;;;16.60;99.90;;;;;;4968716;28;20351;-74
2022/09/15 13:00:11;;;;;;;;;;;16.60;99.90;;;;;;4964711;28;19925;-74
2022/09/15 13:02:44;;;;;;;;;;;16.50;99.90;;;;;;4981948;28;19973;-74
2022/09/15 13:05:10;;;;;;;;;;;16.50;99.90;;;;;;4963924;28;19922;-73
2022/09/15 13:07:51;;;;;;;;;;;16.50;99.90;;;;;;4964785;28;19910;-74
2022/09/15 13:10:27;;;;;;;;;;;16.50;99.90;;;;;;4967997;28;19910;-73
2022/09/15 13:13:01;;;;;;;;;;;16.50;99.90;;;;;;4967125;28;19917;-74
2022/09/15 13:15:27;;;;;;;;;;;16.50;99.90;;;;;;4971052;28;19910;-75
2022/09/15 13:17:53;;;;;;;;;;;16.50;99.90;;;;;;4963311;28;20341;-75
2022/09/15 13:20:22;;;;;;;;;;;16.50;99.90;;;;;;4965057;28;20020;-74
2022/09/15 13:22:49;;;;;;;;;;;16.50;99.90;;;;;;4984923;28;19918;-74
2022/09/15 13:25:16;;;;;;;;;;;16.60;99.90;;;;;;4971350;28;19945;-74
2022/09/15 13:27:43;;;;;;;;;;;16.50;99.90;;;;;;4972436;28;19960;-74
2022/09/15 13:30:28;;;;;;;;;;;16.60;99.90;;;;;;4986657;28;20008;-73
2022/09/15 13:32:59;;;;;;;;;;;16.60;99.90;;;;;;4965805;28;19940;-73
2022/09/15 13:35:40;;;;;;;;;;;16.60;99.90;;;;;;4981466;28;19918;-73
2022/09/15 13:38:08;;;;;;;;;;;16.60;99.90;;;;;;4963969;28;19925;-73
2022/09/15 13:40:40;;;;;;;;;;;16.60;99.90;;;;;;4971613;28;19986;-73
2022/09/15 13:43:20;;;;;;;;;;;16.70;99.90;;;;;;4972423;28;19917;-74
2022/09/15 13:45:53;;;;;;;;;;;16.60;99.90;;;;;;4978345;28;19948;-74
2022/09/15 13:48:22;;;;;;;;;;;16.60;99.90;;;;;;4986940;28;19959;-73
2022/09/15 13:51:14;;;;;;;;;;;16.60;99.90;;;;;;4968886;28;19910;-74
2022/09/15 13:53:51;;;;;;;;;;;16.70;99.90;;;;;;4961167;28;19910;-75
2022/09/15 13:56:27;;;;;;;;;;;16.80;99.90;;;;;;4970226;28;19910;-75
2022/09/15 13:58:56;;;;;;;;;;;16.90;99.90;;;;;;4967031;28;19930;-68
2022/09/15 14:01:22;;;;;;;;;;;17.00;99.90;;;;;;4967397;28;19916;-66
2022/09/15 14:03:49;;;;;;;;;;;17.10;99.90;;;;;;4967939;28;19910;-67
2022/09/15 14:06:35;;;;;;;;;;;17.20;99.90;;;;;;4971627;28;19954;-68
2022/09/15 14:09:05;;;;;;;;;;;17.10;99.90;;;;;;4969850;28;20438;-68
2022/09/15 14:11:31;;;;;;;;;;;17.20;99.90;;;;;;4984926;28;19957;-67
2022/09/15 14:14:00;;;;;;;;;;;17.10;99.90;;;;;;4983719;28;19913;-68
2022/09/15 14:16:26;;;;;;;;;;;17.10;99.90;;;;;;4968599;28;19993;-67
2022/09/15 14:18:53;;;;;;;;;;;17.10;99.90;;;;;;4971775;28;20038;-68
2022/09/15 14:21:20;;;;;;;;;;;17.20;99.90;;;;;;4982782;28;19921;-67
2022/09/15 14:23:46;;;;;;;;;;;17.20;99.90;;;;;;4973835;28;19910;-67
2022/09/15 14:26:13;;;;;;;;;;;17.10;99.90;;;;;;4987897;28;19918;-67